createdAt,value
2018-10-01T00:01:10.420Z,37.53
2018-10-01T00:03:41.111Z,35.37
2018-10-01T00:06:12.401Z,33.30
2018-10-01T00:08:42.955Z,30.57
2018-10-01T00:11:13.649Z,31.70
2018-10-01T00:13:44.506Z,34.63
2018-10-01T00:16:15.377Z,30.40
2018-10-01T00:18:45.873Z,32.00
2018-10-01T00:21:21.417Z,34.47
2018-10-01T00:23:52.207Z,31.50
2018-10-01T00:26:22.905Z,31.60
2018-10-01T00:28:53.695Z,29.37
2018-10-01T00:31:24.494Z,35.23
2018-10-01T00:33:55.045Z,31.03
2018-10-01T00:36:25.704Z,32.23
2018-10-01T00:38:56.354Z,30.47
2018-10-01T00:41:27.069Z,32.73
2018-10-01T00:43:57.636Z,31.10
2018-10-01T00:46:28.321Z,33.13
2018-10-01T00:48:58.882Z,31.03
2018-10-01T00:51:29.534Z,28.87
2018-10-01T00:54:00.263Z,30.53
2018-10-01T00:56:31.020Z,31.07
2018-10-01T00:59:01.703Z,30.57
2018-10-01T01:01:32.502Z,35.88
2018-10-01T01:04:03.267Z,35.17
2018-10-01T01:06:33.971Z,29.37
2018-10-01T01:09:05.326Z,30.37
2018-10-01T01:11:36.067Z,34.67
2018-10-01T01:14:06.648Z,30.67
2018-10-01T01:16:37.324Z,32.07
2018-10-01T01:19:07.883Z,36.67
2018-10-01T01:21:38.638Z,32.37
2018-10-01T01:24:09.288Z,31.30
2018-10-01T01:26:40.036Z,28.07
2018-10-01T01:29:10.775Z,27.23
2018-10-01T01:31:41.476Z,35.98
2018-10-01T01:34:12.419Z,34.57
2018-10-01T01:36:42.987Z,35.08
2018-10-01T01:39:13.675Z,32.13
2018-10-01T01:41:44.291Z,28.80
2018-10-01T01:44:14.960Z,36.10
2018-10-01T01:46:45.547Z,32.03
2018-10-01T01:49:16.248Z,35.00
2018-10-01T01:51:46.964Z,33.10
2018-10-01T01:54:17.533Z,38.80
2018-10-01T01:56:48.071Z,37.83
2018-10-01T01:59:18.774Z,33.83
2018-10-01T02:01:49.436Z,38.27
2018-10-01T02:04:20.336Z,36.53
2018-10-01T02:06:51.050Z,33.93
2018-10-01T02:09:21.778Z,34.80
2018-10-01T02:11:52.396Z,33.20
2018-10-01T02:14:23.278Z,32.48
2018-10-01T02:16:54.194Z,30.93
2018-10-01T02:19:24.851Z,30.37
2018-10-01T02:21:55.717Z,25.43
2018-10-01T02:24:26.398Z,29.02
2018-10-01T02:26:57.010Z,32.53
2018-10-01T02:29:28.050Z,26.60
2018-10-01T02:31:59.092Z,32.17
2018-10-01T02:34:29.794Z,32.73
2018-10-01T02:37:00.366Z,37.60
2018-10-01T02:39:31.012Z,35.43
2018-10-01T02:42:01.769Z,34.60
2018-10-01T02:44:32.297Z,39.00
2018-10-01T02:47:03.020Z,42.30
2018-10-01T02:49:33.746Z,42.30
2018-10-01T02:52:09.393Z,46.27
2018-10-01T02:54:40.145Z,49.67
2018-10-01T02:57:10.863Z,47.87
2018-10-01T02:59:41.517Z,43.90
2018-10-01T03:02:12.234Z,44.00
2018-10-01T03:04:43.032Z,46.60
2018-10-01T03:07:13.889Z,45.17
2018-10-01T03:09:44.807Z,44.93
2018-10-01T03:12:15.562Z,49.27
2018-10-01T03:14:46.449Z,49.43
2018-10-01T03:17:17.479Z,51.87
2018-10-01T03:19:48.220Z,54.33
2018-10-01T03:22:18.878Z,65.35
2018-10-01T03:24:49.552Z,59.03
2018-10-01T03:27:20.181Z,56.93
2018-10-01T03:29:50.900Z,59.53
2018-10-01T03:32:21.693Z,46.77
2018-10-01T03:34:52.630Z,45.60
2018-10-01T03:37:23.477Z,50.60
2018-10-01T03:39:54.444Z,51.20
2018-10-01T03:42:25.004Z,47.60
2018-10-01T03:44:55.967Z,42.63
2018-10-01T03:47:26.590Z,40.33
2018-10-01T03:49:57.284Z,41.53
2018-10-01T03:52:27.927Z,43.63
2018-10-01T03:54:58.608Z,37.23
2018-10-01T03:57:29.567Z,34.23
2018-10-01T04:00:00.485Z,44.07
2018-10-01T04:02:31.264Z,38.67
2018-10-01T04:05:01.803Z,37.70
2018-10-01T04:07:32.380Z,33.90
2018-10-01T04:10:03.044Z,34.10
2018-10-01T04:12:33.739Z,29.53
2018-10-01T04:15:04.334Z,29.97
2018-10-01T04:17:35.033Z,31.10
2018-10-01T04:20:06.347Z,37.37
2018-10-01T04:22:38.528Z,36.00
2018-10-01T04:25:10.863Z,35.53
2018-10-01T04:27:41.610Z,33.40
2018-10-01T04:30:13.389Z,29.87
2018-10-01T04:32:44.584Z,27.57
2018-10-01T04:35:15.372Z,24.30
2018-10-01T04:37:46.060Z,24.40
2018-10-01T04:40:17.066Z,28.07
2018-10-01T04:42:47.779Z,27.87
2018-10-01T04:45:18.449Z,27.50
2018-10-01T04:47:49.198Z,27.07
2018-10-01T04:50:20.280Z,28.73
2018-10-01T04:52:50.972Z,29.80
2018-10-01T04:55:21.915Z,29.55
2018-10-01T04:57:53.344Z,30.37
2018-10-01T05:00:23.893Z,33.77
2018-10-01T05:02:54.567Z,37.20
2018-10-01T05:05:25.686Z,34.50
2018-10-01T05:07:56.639Z,33.43
2018-10-01T05:10:27.328Z,32.83
2018-10-01T05:18:59.094Z,37.10
2018-10-01T05:21:30.006Z,29.43
2018-10-01T05:24:00.732Z,31.83
2018-10-01T05:26:31.726Z,26.20
2018-10-01T05:29:02.726Z,39.40
2018-10-01T05:31:33.706Z,26.77
2018-10-01T05:34:04.566Z,27.50
2018-10-01T05:36:35.486Z,23.00
2018-10-01T05:39:09.202Z,24.95
2018-10-01T05:41:39.833Z,29.37
2018-10-01T05:44:10.703Z,24.17
2018-10-01T05:46:41.559Z,23.37
2018-10-01T05:49:12.408Z,38.17
2018-10-01T05:51:43.277Z,34.03
2018-10-01T05:54:14.426Z,30.40
2018-10-01T05:56:45.088Z,30.53
2018-10-01T05:59:15.957Z,29.17
2018-10-01T06:01:46.812Z,23.50
2018-10-01T06:04:17.679Z,24.93
2018-10-01T06:06:48.280Z,24.00
2018-10-01T06:09:18.952Z,22.30
2018-10-01T06:11:49.801Z,24.83
2018-10-01T06:14:20.531Z,23.87
2018-10-01T06:16:51.331Z,31.20
2018-10-01T06:19:22.017Z,25.40
2018-10-01T06:21:52.628Z,25.90
2018-10-01T06:24:23.243Z,25.30
2018-10-01T06:26:53.850Z,28.13
2018-10-01T06:29:24.592Z,28.77
2018-10-01T06:31:55.164Z,31.48
2018-10-01T06:34:26.028Z,30.40
2018-10-01T06:36:56.659Z,31.40
2018-10-01T06:39:27.508Z,32.00
2018-10-01T06:41:58.420Z,27.93
2018-10-01T06:44:29.550Z,33.87
2018-10-01T06:47:00.388Z,35.93
2018-10-01T06:49:30.978Z,34.83
2018-10-01T06:52:01.766Z,33.80
2018-10-01T06:54:36.283Z,41.77
2018-10-01T06:57:09.253Z,56.60
2018-10-01T06:59:56.303Z,52.47
2018-10-01T07:02:30.164Z,36.67
2018-10-01T07:05:02.059Z,34.47
2018-10-01T07:07:33.007Z,34.97
2018-10-01T07:10:04.157Z,38.80
2018-10-01T07:12:35.452Z,33.50
2018-10-01T07:15:07.113Z,35.03
2018-10-01T07:17:39.759Z,33.78
2018-10-01T07:20:34.142Z,30.00
2018-10-01T07:23:04.983Z,32.17
2018-10-01T07:25:35.742Z,50.53
2018-10-01T07:28:07.224Z,39.77
2018-10-01T07:30:38.258Z,37.27
2018-10-01T07:33:16.961Z,32.83
2018-10-01T07:35:51.579Z,41.63
2018-10-01T07:38:23.148Z,30.60
2018-10-01T07:40:55.022Z,35.20
2018-10-01T07:43:25.579Z,33.70
2018-10-01T07:45:56.472Z,33.30
2018-10-01T07:48:28.139Z,36.73
2018-10-01T07:50:59.276Z,30.67
2018-10-01T07:53:30.086Z,38.97
2018-10-01T07:56:00.854Z,37.10
2018-10-01T07:58:31.489Z,37.80
2018-10-01T08:01:02.376Z,33.87
2018-10-01T08:03:33.383Z,31.63
2018-10-01T08:06:04.096Z,40.33
2018-10-01T08:08:35.365Z,35.93
2018-10-01T08:11:06.029Z,32.27
2018-10-01T08:13:36.642Z,34.50
2018-10-01T08:16:07.597Z,29.63
2018-10-01T08:18:38.664Z,33.60
2018-10-01T08:21:09.629Z,38.80
2018-10-01T08:23:40.388Z,41.27
2018-10-01T08:26:11.340Z,30.67
2018-10-01T08:28:41.984Z,25.73
2018-10-01T08:31:13.142Z,23.57
2018-10-01T08:33:43.817Z,22.87
2018-10-01T08:36:14.690Z,23.50
2018-10-01T08:38:47.148Z,25.13
2018-10-01T08:41:17.741Z,23.33
2018-10-01T08:43:48.372Z,33.20
2018-10-01T08:46:19.047Z,26.97
2018-10-01T08:48:57.572Z,24.63
2018-10-01T08:51:33.821Z,23.90
2018-10-01T08:54:39.499Z,25.10
2018-10-01T08:57:10.140Z,26.27
2018-10-01T08:59:40.701Z,24.80
2018-10-01T09:02:11.388Z,27.70
2018-10-01T09:04:42.020Z,23.47
2018-10-01T09:07:12.799Z,27.67
2018-10-01T09:09:43.945Z,45.13
2018-10-01T09:12:14.612Z,26.10
2018-10-01T09:14:45.754Z,28.40
2018-10-01T09:17:16.426Z,28.30
2018-10-01T09:19:47.410Z,25.73
2018-10-01T09:22:18.394Z,23.87
2018-10-01T09:24:49.253Z,30.17
2018-10-01T09:27:19.861Z,26.83
2018-10-01T09:29:50.869Z,38.33
2018-10-01T09:32:21.508Z,30.37
2018-10-01T09:34:52.239Z,26.67
2018-10-01T09:37:22.854Z,32.30
2018-10-01T09:39:56.671Z,24.77
2018-10-01T09:42:27.421Z,27.90
2018-10-01T09:44:58.259Z,30.43
2018-10-01T09:47:29.435Z,22.73
2018-10-01T09:50:00.965Z,33.93
2018-10-01T09:52:31.910Z,21.27
2018-10-01T09:55:02.907Z,23.67
2018-10-01T09:57:33.580Z,26.67
2018-10-01T10:00:04.320Z,26.27
2018-10-01T10:02:35.268Z,25.50
2018-10-01T10:05:06.246Z,23.23
2018-10-01T10:07:38.191Z,24.17
2018-10-01T10:10:09.343Z,30.40
2018-10-01T10:12:40.069Z,33.37
2018-10-01T10:15:10.648Z,30.23
2018-10-01T10:17:42.136Z,25.43
2018-10-01T10:20:12.985Z,34.73
2018-10-01T10:22:44.177Z,24.50
2018-10-01T10:25:16.327Z,27.33
2018-10-01T10:27:47.263Z,96.17
2018-10-01T10:30:18.133Z,25.50
2018-10-01T10:32:48.905Z,47.13
2018-10-01T10:35:19.616Z,26.77
2018-10-01T10:37:50.932Z,33.17
2018-10-01T10:40:21.904Z,23.77
2018-10-01T10:42:52.878Z,23.47
2018-10-01T10:45:23.483Z,28.80
2018-10-01T10:47:54.336Z,26.57
2018-10-01T10:50:25.131Z,18.67
2018-10-01T10:52:55.773Z,15.17
2018-10-01T10:55:26.415Z,14.93
2018-10-01T10:57:57.308Z,13.73
2018-10-01T11:00:28.310Z,12.83
2018-10-01T11:02:59.017Z,16.13
2018-10-01T11:05:29.735Z,13.07
2018-10-01T11:08:00.383Z,14.73
2018-10-01T11:10:31.140Z,16.33
2018-10-01T11:13:02.149Z,15.67
2018-10-01T11:15:33.508Z,12.47
2018-10-01T11:18:04.361Z,13.97
2018-10-01T11:20:35.146Z,18.13
2018-10-01T11:23:05.921Z,33.47
2018-10-01T11:25:36.686Z,34.00
2018-10-01T11:28:07.584Z,31.07
2018-10-01T11:30:38.211Z,28.60
2018-10-01T11:33:08.996Z,23.53
2018-10-01T11:35:39.618Z,22.37
2018-10-01T11:38:10.479Z,21.67
2018-10-01T11:40:41.314Z,24.50
2018-10-01T11:43:11.957Z,26.37
2018-10-01T11:45:42.707Z,27.10
2018-10-01T11:48:13.646Z,30.10
2018-10-01T11:50:45.957Z,23.03
2018-10-01T11:53:18.528Z,21.57
2018-10-01T11:55:51.503Z,19.10
2018-10-01T11:58:22.395Z,28.00
2018-10-01T12:00:54.704Z,13.13
2018-10-01T12:03:25.494Z,17.47
2018-10-01T12:05:56.342Z,9.73
2018-10-01T12:08:27.079Z,10.90
2018-10-01T12:10:57.692Z,13.17
2018-10-01T12:13:28.470Z,15.83
2018-10-01T12:15:59.448Z,16.23
2018-10-01T12:18:30.006Z,15.67
2018-10-01T12:21:00.875Z,11.87
2018-10-01T12:23:31.834Z,10.73
2018-10-01T12:26:02.870Z,10.73
2018-10-01T12:28:33.595Z,10.80
2018-10-01T12:31:04.308Z,10.27
2018-10-01T12:33:35.122Z,10.43
2018-10-01T12:36:12.588Z,11.90
2018-10-01T12:38:43.355Z,13.70
2018-10-01T12:41:14.059Z,7.80
2018-10-01T12:43:44.840Z,8.27
2018-10-01T12:46:15.556Z,9.37
2018-10-01T12:48:46.214Z,11.23
2018-10-01T12:51:17.077Z,10.13
2018-10-01T12:53:47.820Z,10.80
2018-10-01T12:56:18.440Z,9.03
2018-10-01T12:58:49.181Z,9.70
2018-10-01T13:01:20.021Z,10.00
2018-10-01T13:03:50.828Z,6.90
2018-10-01T13:06:21.724Z,7.77
2018-10-01T13:08:52.671Z,6.90
2018-10-01T13:11:23.486Z,4.00
2018-10-01T13:13:54.395Z,4.93
2018-10-01T13:16:25.099Z,3.40
2018-10-01T13:18:57.653Z,3.53
2018-10-01T13:21:28.406Z,4.23
2018-10-01T13:23:59.233Z,3.60
2018-10-01T13:26:30.356Z,3.47
2018-10-01T13:29:01.308Z,4.87
2018-10-01T13:31:32.145Z,4.60
2018-10-01T13:34:03.149Z,3.50
2018-10-01T13:36:43.566Z,3.77
2018-10-01T13:39:18.281Z,7.17
2018-10-01T13:41:53.069Z,3.57
2018-10-01T13:44:23.839Z,8.37
2018-10-01T13:46:54.867Z,10.47
2018-10-01T13:49:26.097Z,6.27
2018-10-01T13:51:58.959Z,6.47
2018-10-01T13:54:31.580Z,7.83
2018-10-01T13:57:02.801Z,6.37
2018-10-01T13:59:42.850Z,6.23
2018-10-01T14:02:15.315Z,5.30
2018-10-01T14:04:46.090Z,4.50
2018-10-01T14:07:17.024Z,5.40
2018-10-01T14:09:47.689Z,4.50
2018-10-01T14:12:18.554Z,5.73
2018-10-01T14:14:49.342Z,4.63
2018-10-01T14:17:19.947Z,8.85
2018-10-01T14:19:50.877Z,4.30
2018-10-01T14:22:21.827Z,4.87
2018-10-01T14:24:52.663Z,5.77
2018-10-01T14:27:23.451Z,5.43
2018-10-01T14:29:54.093Z,6.03
2018-10-01T14:32:28.172Z,5.60
2018-10-01T14:34:59.818Z,10.87
2018-10-01T14:37:31.735Z,16.13
2018-10-01T14:40:02.398Z,18.47
2018-10-01T14:42:33.199Z,26.10
2018-10-01T14:45:03.775Z,15.20
2018-10-01T14:47:34.508Z,14.45
2018-10-01T14:50:05.711Z,19.47
2018-10-01T14:52:36.830Z,27.63
2018-10-01T14:55:08.387Z,38.63
2018-10-01T14:57:39.335Z,33.00
2018-10-01T15:00:10.247Z,26.90
2018-10-01T15:02:40.799Z,29.33
2018-10-01T15:05:11.404Z,37.27
2018-10-01T15:07:42.193Z,38.40
2018-10-01T15:10:12.852Z,22.20
2018-10-01T15:12:43.684Z,13.73
2018-10-01T15:15:14.305Z,15.10
2018-10-01T15:17:45.061Z,9.33
2018-10-01T15:20:15.987Z,10.93
2018-10-01T15:22:46.779Z,15.23
2018-10-01T15:25:17.637Z,11.53
2018-10-01T15:27:48.364Z,15.87
2018-10-01T15:30:19.061Z,11.77
2018-10-01T15:32:49.675Z,12.70
2018-10-01T15:35:20.487Z,15.57
2018-10-01T15:37:51.380Z,15.63
2018-10-01T15:40:22.286Z,16.00
2018-10-01T15:42:53.626Z,14.77
2018-10-01T15:45:24.760Z,12.00
2018-10-01T15:47:55.678Z,14.43
2018-10-01T15:50:26.425Z,10.73
2018-10-01T15:52:57.545Z,11.80
2018-10-01T15:55:28.527Z,11.90
2018-10-01T15:57:59.889Z,9.20
2018-10-01T16:00:30.613Z,9.13
2018-10-01T16:03:01.467Z,9.90
2018-10-01T16:05:33.724Z,9.87
2018-10-01T16:08:12.756Z,11.23
2018-10-01T16:10:45.431Z,6.77
2018-10-01T16:13:17.292Z,13.53
2018-10-01T16:15:50.637Z,18.00
2018-10-01T16:18:24.625Z,18.73
2018-10-01T16:20:56.165Z,32.73
2018-10-01T16:23:30.169Z,26.67
2018-10-01T16:26:02.124Z,14.63
2018-10-01T16:28:32.923Z,11.63
2018-10-01T16:31:05.650Z,15.90
2018-10-01T16:33:38.427Z,9.27
2018-10-01T16:36:11.469Z,10.57
2018-10-01T16:38:42.554Z,6.70
2018-10-01T16:41:15.505Z,6.07
2018-10-01T16:43:46.314Z,8.67
2018-10-01T16:46:17.366Z,6.20
2018-10-01T16:48:48.410Z,9.00
2018-10-01T16:51:20.371Z,8.23
2018-10-01T16:53:51.367Z,8.30
2018-10-01T16:56:22.277Z,6.63
2018-10-01T16:58:53.409Z,8.40
2018-10-01T17:01:24.352Z,8.80
2018-10-01T17:03:55.289Z,6.50
2018-10-01T17:06:31.523Z,10.37
2018-10-01T17:09:02.753Z,17.63
2018-10-01T17:11:33.625Z,16.23
2018-10-01T17:14:04.681Z,25.13
2018-10-01T17:16:35.390Z,19.17
2018-10-01T17:19:06.120Z,18.30
2018-10-01T17:21:36.861Z,18.80
2018-10-01T17:24:08.185Z,26.13
2018-10-01T17:26:39.091Z,18.37
2018-10-01T17:29:11.725Z,17.13
2018-10-01T17:31:43.304Z,14.90
2018-10-01T17:34:14.092Z,13.75
2018-10-01T17:36:44.964Z,17.50
2018-10-01T17:39:15.805Z,18.63
2018-10-01T17:41:46.708Z,28.50
2018-10-01T17:44:18.613Z,25.40
2018-10-01T17:46:51.420Z,19.23
2018-10-01T17:49:22.596Z,21.10
2018-10-01T17:51:53.500Z,32.30
2018-10-01T17:54:24.617Z,25.60
2018-10-01T17:56:55.438Z,16.93
2018-10-01T17:59:26.237Z,17.97
2018-10-01T18:01:57.256Z,12.97
2018-10-01T18:04:28.203Z,14.30
2018-10-01T18:06:59.217Z,19.20
2018-10-01T18:09:30.113Z,13.83
2018-10-01T18:12:00.998Z,21.30
2018-10-01T18:14:38.928Z,15.87
2018-10-01T18:17:12.438Z,22.77
2018-10-01T18:19:43.633Z,15.40
2018-10-01T18:22:14.628Z,17.90
2018-10-01T18:24:45.863Z,14.17
2018-10-01T18:27:17.054Z,15.80
2018-10-01T18:29:48.141Z,11.80
2018-10-01T18:32:19.915Z,19.87
2018-10-01T18:34:51.134Z,16.50
2018-10-01T18:37:23.022Z,13.63
2018-10-01T18:39:53.843Z,16.30
2018-10-01T18:42:25.671Z,20.93
2018-10-01T18:44:56.275Z,15.77
2018-10-01T18:47:27.019Z,20.83
2018-10-01T18:49:58.135Z,21.53
2018-10-01T18:52:32.190Z,28.57
2018-10-01T18:55:03.065Z,34.63
2018-10-01T18:57:35.859Z,23.77
2018-10-01T19:00:07.675Z,25.43
2018-10-01T19:02:40.116Z,15.27
2018-10-01T19:05:11.728Z,19.23
2018-10-01T19:07:42.414Z,18.87
2018-10-01T19:10:13.163Z,21.70
2018-10-01T19:12:44.068Z,16.50
2018-10-01T19:15:14.998Z,24.20
2018-10-01T19:17:45.664Z,17.87
2018-10-01T19:20:16.491Z,19.57
2018-10-01T19:22:47.543Z,17.53
2018-10-01T19:25:19.452Z,22.97
2018-10-01T19:27:50.162Z,31.60
2018-10-01T19:30:20.914Z,35.93
2018-10-01T19:32:51.565Z,32.87
2018-10-01T19:35:22.253Z,42.97
2018-10-01T19:37:52.876Z,38.70
2018-10-01T19:40:23.456Z,37.37
2018-10-01T19:42:54.167Z,22.47
2018-10-01T19:45:24.927Z,23.00
2018-10-01T19:47:55.800Z,28.93
2018-10-01T19:50:26.788Z,20.80
2018-10-01T19:52:57.532Z,18.30
2018-10-01T19:55:28.316Z,18.27
2018-10-01T19:57:58.987Z,24.93
2018-10-01T20:00:29.805Z,18.50
2018-10-01T20:03:00.706Z,18.57
2018-10-01T20:05:31.603Z,20.77
2018-10-01T20:08:02.301Z,24.57
2018-10-01T20:10:33.095Z,26.03
2018-10-01T20:13:03.872Z,22.60
2018-10-01T20:15:34.854Z,19.87
2018-10-01T20:18:05.485Z,17.73
2018-10-01T20:20:36.333Z,31.10
2018-10-01T20:23:07.048Z,31.00
2018-10-01T20:25:38.313Z,35.23
2018-10-01T20:28:09.103Z,25.20
2018-10-01T20:30:39.773Z,37.83
2018-10-01T20:33:10.347Z,24.83
2018-10-01T20:35:41.562Z,27.65
2018-10-01T20:38:12.442Z,24.37
2018-10-01T20:40:43.147Z,23.33
2018-10-01T20:43:14.096Z,28.10
2018-10-01T20:45:44.700Z,27.17
2018-10-01T20:48:15.660Z,25.83
2018-10-01T20:50:46.377Z,25.43
2018-10-01T20:53:17.189Z,30.53
2018-10-01T20:55:47.949Z,27.83
2018-10-01T20:58:18.655Z,25.00
2018-10-01T21:00:49.453Z,26.90
2018-10-01T21:03:20.292Z,27.70
2018-10-01T21:05:51.163Z,26.53
2018-10-01T21:08:22.028Z,25.20
2018-10-01T21:10:52.871Z,23.07
2018-10-01T21:13:23.786Z,20.43
2018-10-01T21:15:54.754Z,24.13
2018-10-01T21:18:25.436Z,19.33
2018-10-01T21:20:56.143Z,22.70
2018-10-01T21:23:26.859Z,16.63
2018-10-01T21:25:57.750Z,21.40
2018-10-01T21:28:28.445Z,21.60
2018-10-01T21:30:59.175Z,22.63
2018-10-01T21:33:30.045Z,24.53
2018-10-01T21:36:01.057Z,24.80
2018-10-01T21:38:31.928Z,25.37
2018-10-01T21:41:02.733Z,25.73
2018-10-01T21:43:33.704Z,27.73
2018-10-01T21:46:04.838Z,31.03
2018-10-01T21:48:35.525Z,40.77
2018-10-01T21:51:06.212Z,27.27
2018-10-01T21:53:36.838Z,32.00
2018-10-01T21:56:08.119Z,34.67
2018-10-01T21:58:39.048Z,30.07
2018-10-01T22:01:14.674Z,29.37
2018-10-01T22:03:45.411Z,26.67
2018-10-01T22:06:16.020Z,23.43
2018-10-01T22:08:46.853Z,25.90
2018-10-01T22:11:17.677Z,26.23
2018-10-01T22:13:48.238Z,25.13
2018-10-01T22:16:18.909Z,33.00
2018-10-01T22:18:49.600Z,31.10
2018-10-01T22:21:20.238Z,35.10
2018-10-01T22:23:50.917Z,35.23
2018-10-01T22:26:21.600Z,32.10
2018-10-01T22:28:52.299Z,32.53
2018-10-01T22:31:23.580Z,34.80
2018-10-01T22:33:54.336Z,32.17
2018-10-01T22:36:25.203Z,30.63
2018-10-01T22:38:56.246Z,29.50
2018-10-01T22:41:26.853Z,30.03
2018-10-01T22:43:57.573Z,32.23
2018-10-01T22:46:28.146Z,28.27
2018-10-01T22:48:59.362Z,28.53
2018-10-01T22:51:29.938Z,27.37
2018-10-01T22:54:00.672Z,27.93
2018-10-01T22:56:31.815Z,24.87
2018-10-01T22:59:02.458Z,23.93
2018-10-01T23:01:33.107Z,24.52
2018-10-01T23:04:03.737Z,20.47
2018-10-01T23:06:34.580Z,22.43
2018-10-01T23:09:06.178Z,21.93
2018-10-01T23:11:36.934Z,20.37
2018-10-01T23:14:07.693Z,19.20
2018-10-01T23:16:38.361Z,20.93
2018-10-01T23:19:09.026Z,21.67
2018-10-01T23:21:39.588Z,18.43
2018-10-01T23:24:10.243Z,19.27
2018-10-01T23:26:40.859Z,20.10
2018-10-01T23:29:11.666Z,20.80
2018-10-01T23:31:42.218Z,21.13
2018-10-01T23:34:12.753Z,20.33
2018-10-01T23:36:43.485Z,24.37
2018-10-01T23:39:14.145Z,23.83
2018-10-01T23:41:44.733Z,18.27
2018-10-01T23:44:15.353Z,20.27
2018-10-01T23:46:46.357Z,18.67
2018-10-01T23:49:17.065Z,24.37
2018-10-01T23:51:47.917Z,25.30
2018-10-01T23:54:18.695Z,18.50
2018-10-01T23:56:49.264Z,19.73
2018-10-01T23:59:19.999Z,15.77
